Aviation Digital Data Service (ADDS)

Output produced by TAFs form (0045 UTC 31 January 2015)
found at http://www.aviationweather.gov/adds/tafs/
 
KDEN 302353Z 36005KT 10SM OVC095 06/M03 A3008 RMK AO2 SLP184 T00611028 10083 20050 53001
KDEN 302340Z 3100/0106 01006KT P6SM SCT050 BKN080 
     FM310400 33007KT P6SM VCSH BKN030 OVC050 
     TEMPO 3107/3111 5SM -SN BR BKN020 OVC035 
     FM311200 29006KT P6SM VCSH SCT020 BKN030 
     TEMPO 3112/3115 BKN020 
     FM311600 34006KT P6SM SCT040 BKN070 
     FM311900 36005KT P6SM SCT050 BKN070